Time;durP1;ratioP1;P1;durP2;ratioP2;P2;SDS_P1;SDS_P2;PMS_P1;PMS_P2;Temp;Humidity;BMP_temperature;BMP_pressure;BME280_temperature;BME280_humidity;BME280_pressure;Samples;Min_cycle;Max_cycle;Signal;HPM_P1;HPM_P2
2022/09/26 00:01:08;;;;;;;6.05;2.33;;;12.60;74.10;;;;;;9179056;19;20086;-62
2022/09/26 00:04:17;;;;;;;5.38;2.20;;;12.60;74.30;;;;;;9178598;19;20011;-64
2022/09/26 00:07:26;;;;;;;5.22;1.80;;;12.60;74.40;;;;;;9178761;19;20021;-63
2022/09/26 00:10:31;;;;;;;;;;;12.60;74.30;;;;;;9175454;19;20014;-62
2022/09/26 00:13:37;;;;;;;6.53;2.30;;;12.60;74.40;;;;;;9178135;19;19919;-62
2022/09/26 00:16:41;;;;;;;2.88;1.75;;;12.60;74.30;;;;;;9178439;19;20097;-62
2022/09/26 00:19:45;;;;;;;2.58;2.00;;;12.60;74.40;;;;;;9177487;19;20044;-62
2022/09/26 00:22:48;;;;;;;2.45;1.83;;;12.50;74.40;;;;;;9178641;19;20007;-63
2022/09/26 00:25:54;;;;;;;8.52;2.25;;;12.50;74.50;;;;;;9178054;19;20399;-64
2022/09/26 00:28:58;;;;;;;4.60;2.42;;;12.50;74.50;;;;;;9173065;19;20015;-63
2022/09/26 00:32:02;;;;;;;5.80;2.60;;;12.50;75.20;;;;;;9175540;19;20019;-63
2022/09/26 00:35:07;;;;;;;7.43;2.78;;;12.50;74.60;;;;;;9177106;19;20630;-61
2022/09/26 00:38:11;;;;;;;3.33;2.10;;;12.50;74.70;;;;;;9175867;19;20018;-63
2022/09/26 00:41:17;;;;;;;5.53;1.90;;;12.50;74.70;;;;;;9176693;19;20014;-61
2022/09/26 00:44:44;;;;;;;7.80;2.35;;;12.50;75.00;;;;;;9176785;19;20060;-64
2022/09/26 00:47:56;;;;;;;4.47;2.65;;;12.50;74.90;;;;;;9176692;19;20536;-63
2022/09/26 00:51:01;;;;;;;7.45;2.60;;;12.40;74.80;;;;;;9176711;19;20037;-62
2022/09/26 00:54:07;;;;;;;3.42;2.60;;;12.40;74.80;;;;;;9176488;19;20033;-63
2022/09/26 00:57:16;;;;;;;5.10;2.78;;;12.40;74.90;;;;;;9172060;19;20022;-63
2022/09/26 01:00:22;;;;;;;7.55;2.97;;;12.40;75.00;;;;;;9176667;19;20044;-63
2022/09/26 01:03:27;;;;;;;8.00;2.90;;;12.40;75.00;;;;;;9175158;19;20060;-62
2022/09/26 01:06:33;;;;;;;7.05;2.80;;;12.40;75.10;;;;;;9175893;19;20018;-62
2022/09/26 01:09:38;;;;;;;8.57;3.10;;;12.40;75.10;;;;;;9180883;19;20047;-64
2022/09/26 01:12:44;;;;;;;7.55;2.80;;;12.30;75.20;;;;;;9184677;19;20015;-62
2022/09/26 01:15:48;;;;;;;7.20;3.58;;;12.40;75.20;;;;;;9184569;19;20019;-61
2022/09/26 01:18:52;;;;;;;5.45;3.25;;;12.40;75.20;;;;;;9183323;19;20018;-62
2022/09/26 01:22:23;;;;;;;4.75;3.22;;;12.40;75.30;;;;;;9183838;19;20363;-63
2022/09/26 01:25:45;;;;;;;9.25;3.60;;;12.40;75.40;;;;;;9182398;19;20074;-63
2022/09/26 01:29:12;;;;;;;6.85;3.28;;;12.40;75.40;;;;;;9182709;19;20007;-63
2022/09/26 01:36:17;;;;;;;9.52;3.13;;;12.40;75.40;;;;;;9182358;19;20021;-62
2022/09/26 01:39:32;;;;;;;7.55;3.80;;;12.40;75.50;;;;;;9183832;19;20025;-61
2022/09/26 01:42:42;;;;;;;6.35;3.03;;;12.40;75.50;;;;;;9181519;19;20010;-62
2022/09/26 01:45:52;;;;;;;6.38;3.17;;;12.40;75.50;;;;;;9183657;19;20018;-62
2022/09/26 01:49:09;;;;;;;5.45;3.53;;;12.40;75.50;;;;;;9179646;19;20022;-62
2022/09/26 01:52:20;;;;;;;8.90;3.55;;;12.40;75.60;;;;;;9181335;19;20015;-62
2022/09/26 01:55:29;;;;;;;5.80;3.90;;;12.40;75.60;;;;;;9181136;19;20021;-63
2022/09/26 01:58:37;;;;;;;9.25;3.88;;;12.40;75.60;;;;;;9177110;19;20021;-62
2022/09/26 02:01:45;;;;;;;6.40;3.83;;;12.40;75.70;;;;;;9181445;19;20014;-61
2022/09/26 02:04:55;;;;;;;6.40;4.03;;;12.40;75.80;;;;;;9182427;19;20015;-63
2022/09/26 02:08:05;;;;;;;6.30;3.60;;;12.40;75.90;;;;;;9182359;19;20030;-62
2022/09/26 02:11:14;;;;;;;7.75;4.10;;;12.40;75.90;;;;;;9182982;19;20102;-64
2022/09/26 02:14:22;;;;;;;8.35;3.90;;;12.40;76.00;;;;;;9182010;19;20010;-63
2022/09/26 02:17:31;;;;;;;9.63;3.72;;;12.50;76.10;;;;;;9181859;19;20010;-63
2022/09/26 02:20:42;;;;;;;8.18;4.30;;;12.50;76.20;;;;;;9177846;19;20018;-61
2022/09/26 02:23:47;;;;;;;12.85;4.25;;;12.50;76.30;;;;;;9177272;19;20011;-64
2022/09/26 02:26:52;;;;;;;5.38;3.70;;;12.50;76.30;;;;;;9180506;19;20018;-63
2022/09/26 02:29:56;;;;;;;11.30;4.57;;;12.50;76.40;;;;;;9177264;19;20471;-64
2022/09/26 02:33:00;;;;;;;;;;;12.50;76.40;;;;;;9183014;19;20006;-62
2022/09/26 02:36:09;;;;;;;10.18;4.07;;;12.50;76.40;;;;;;9180355;19;19922;-62
2022/09/26 02:39:12;;;;;;;12.63;5.80;;;12.50;76.20;;;;;;9180074;19;20014;-61
2022/09/26 02:42:35;;;;;;;10.38;4.13;;;12.50;76.40;;;;;;9180071;19;20015;-61
2022/09/26 02:45:44;;;;;;;5.78;3.33;;;12.50;76.50;;;;;;9179949;19;20015;-64
2022/09/26 02:48:59;;;;;;;5.18;3.63;;;12.50;76.60;;;;;;9180366;19;20638;-61
2022/09/26 02:52:20;;;;;;;6.43;3.83;;;12.50;76.70;;;;;;9180294;19;20503;-62
2022/09/26 02:55:31;;;;;;;5.00;3.53;;;12.50;76.80;;;;;;9179085;19;20010;-63
2022/09/26 02:58:47;;;;;;;5.63;3.70;;;12.50;76.80;;;;;;9175366;19;20010;-61
2022/09/26 03:01:55;;;;;;;8.45;4.32;;;12.50;76.90;;;;;;9179118;19;20021;-63
2022/09/26 03:05:04;;;;;;;8.13;4.65;;;12.50;76.80;;;;;;9178875;19;20018;-62
2022/09/26 03:08:14;;;;;;;7.07;4.35;;;12.50;76.90;;;;;;9180122;19;20045;-62
2022/09/26 03:11:22;;;;;;;11.82;5.05;;;12.50;77.00;;;;;;9180001;19;20030;-63
2022/09/26 03:14:25;;;;;;;6.95;4.55;;;12.50;77.00;;;;;;9180082;19;20571;-62
2022/09/26 03:17:30;;;;;;;8.20;4.93;;;12.50;77.00;;;;;;9181153;19;20122;-63
2022/09/26 03:20:34;;;;;;;9.65;4.70;;;12.50;77.00;;;;;;9172110;19;20120;-63
2022/09/26 03:23:40;;;;;;;10.15;6.03;;;12.50;77.10;;;;;;9176911;19;20035;-63
2022/09/26 03:26:46;;;;;;;8.88;5.57;;;12.50;77.10;;;;;;9177828;19;20025;-63
2022/09/26 03:29:50;;;;;;;9.00;5.28;;;12.50;77.10;;;;;;9175723;19;20038;-62
2022/09/26 03:32:58;;;;;;;6.93;4.38;;;12.50;77.20;;;;;;9177141;19;20026;-62
2022/09/26 03:36:05;;;;;;;11.50;5.57;;;12.50;77.20;;;;;;9178394;19;20082;-64
2022/09/26 03:39:11;;;;;;;12.68;5.70;;;12.50;77.30;;;;;;9177645;19;20045;-63
2022/09/26 03:42:23;;;;;;;13.07;5.78;;;12.50;77.30;;;;;;9177980;19;20030;-62
2022/09/26 03:45:28;;;;;;;7.38;5.10;;;12.50;77.30;;;;;;9177737;19;20015;-63
2022/09/26 03:48:40;;;;;;;11.57;4.55;;;12.50;77.30;;;;;;9176603;19;20043;-62
2022/09/26 03:51:44;;;;;;;8.27;4.70;;;12.50;77.40;;;;;;9179434;19;20051;-63
2022/09/26 03:54:50;;;;;;;9.30;4.88;;;12.50;77.40;;;;;;9179178;19;20434;-62
2022/09/26 03:57:54;;;;;;;8.00;4.80;;;12.50;77.40;;;;;;9173003;19;20020;-63
2022/09/26 04:01:06;;;;;;;10.15;4.88;;;12.50;77.50;;;;;;9177480;19;20014;-63
2022/09/26 04:04:10;;;;;;;8.55;4.60;;;12.50;77.50;;;;;;9176811;19;20018;-63
2022/09/26 04:07:15;;;;;;;5.82;4.38;;;12.50;77.50;;;;;;9176859;19;20082;-61
2022/09/26 04:10:23;;;;;;;7.20;4.50;;;12.50;77.50;;;;;;9173611;19;20596;-64
2022/09/26 04:13:26;;;;;;;9.43;3.83;;;12.50;77.60;;;;;;9178738;19;20017;-63
2022/09/26 04:16:51;;;;;;;11.98;4.90;;;12.50;78.10;;;;;;9173325;19;20094;-62
2022/09/26 04:20:02;;;;;;;8.13;4.18;;;12.50;77.50;;;;;;9177098;19;20916;-62
2022/09/26 04:23:07;;;;;;;43.85;4.80;;;12.40;77.60;;;;;;9176516;19;20109;-63
2022/09/26 04:26:15;;;;;;;8.93;4.40;;;12.40;77.60;;;;;;9176502;19;20014;-62
2022/09/26 04:29:26;;;;;;;10.35;4.60;;;12.40;77.60;;;;;;9174054;19;20079;-61
2022/09/26 04:32:36;;;;;;;8.93;4.15;;;12.40;77.60;;;;;;9177514;19;20033;-62
2022/09/26 04:36:01;;;;;;;10.70;4.45;;;12.40;77.60;;;;;;9178108;19;20463;-62
2022/09/26 04:39:05;;;;;;;10.57;4.07;;;12.40;77.70;;;;;;9177465;19;20037;-63
2022/09/26 04:42:12;;;;;;;8.32;3.95;;;12.40;77.70;;;;;;9175905;19;20352;-63
2022/09/26 04:45:17;;;;;;;5.05;4.00;;;12.40;77.70;;;;;;9185014;19;20014;-62
2022/09/26 04:48:21;;;;;;;11.35;4.45;;;12.40;77.80;;;;;;9184508;19;20011;-62
2022/09/26 04:51:50;;;;;;;15.32;4.22;;;12.30;77.70;;;;;;9185382;19;20081;-62
2022/09/26 04:54:55;;;;;;;5.55;4.15;;;12.30;77.70;;;;;;9183898;19;20022;-63
2022/09/26 04:58:02;;;;;;;12.23;4.68;;;12.30;77.80;;;;;;9178789;19;20019;-62
2022/09/26 05:01:08;;;;;;;10.40;3.88;;;12.30;77.90;;;;;;9183250;19;20085;-61
2022/09/26 05:04:33;;;;;;;7.97;3.80;;;12.30;77.90;;;;;;9183326;19;20014;-62
2022/09/26 05:07:40;;;;;;;6.80;3.80;;;12.30;77.90;;;;;;9184594;19;20026;-61
2022/09/26 05:10:45;;;;;;;8.18;3.97;;;12.20;77.90;;;;;;9179355;19;20015;-62
2022/09/26 05:13:51;;;;;;;8.57;4.30;;;12.20;77.90;;;;;;9183018;19;20484;-62
2022/09/26 05:16:57;;;;;;;9.68;3.75;;;12.20;77.90;;;;;;9183040;19;20026;-61
2022/09/26 05:20:01;;;;;;;9.43;3.50;;;12.20;77.90;;;;;;9185092;19;20015;-62
2022/09/26 05:26:18;;;;;;;9.05;3.92;;;12.20;78.00;;;;;;9182220;19;20029;-63
2022/09/26 05:26:49;;;;;;;7.22;3.42;;;12.20;78.00;;;;;;9181969;19;20999;-62
2022/09/26 05:29:56;;;;;;;10.40;4.55;;;12.10;78.00;;;;;;9177529;19;20048;-62
2022/09/26 05:33:01;;;;;;;8.63;4.35;;;12.20;78.10;;;;;;9181100;19;20019;-63
2022/09/26 05:36:06;;;;;;;8.77;4.63;;;12.10;78.00;;;;;;9183478;19;20021;-61
2022/09/26 05:40:55;;;;;;;6.97;3.80;;;12.10;78.10;;;;;;9179397;19;20011;-62
2022/09/26 05:42:33;;;;;;;11.55;3.10;;;12.10;78.10;;;;;;9174171;19;20015;-62
2022/09/26 05:45:38;;;;;;;10.85;4.03;;;12.10;78.10;;;;;;9181484;19;20370;-63
2022/09/26 05:48:44;;;;;;;5.68;3.33;;;12.10;78.10;;;;;;9174588;19;20018;-63
2022/09/26 05:51:53;;;;;;;9.38;3.65;;;12.00;78.10;;;;;;9178565;19;20115;-62
2022/09/26 05:54:58;;;;;;;10.38;3.65;;;12.00;78.10;;;;;;9176905;19;20025;-62
2022/09/26 05:58:20;;;;;;;4.95;3.60;;;12.00;78.10;;;;;;9179261;19;20460;-63
2022/09/26 06:01:52;;;;;;;6.80;3.15;;;12.00;78.20;;;;;;9173681;19;20505;-63
2022/09/26 06:05:13;;;;;;;7.57;3.50;;;12.00;78.20;;;;;;9175091;19;20429;-64
2022/09/26 06:08:41;;;;;;;5.82;3.13;;;12.00;78.20;;;;;;9172176;19;20019;-65
2022/09/26 06:11:57;;;;;;;5.78;3.22;;;12.00;78.20;;;;;;9174322;19;20504;-63
2022/09/26 06:15:01;;;;;;;6.28;3.50;;;12.00;78.20;;;;;;9168357;19;20015;-63
2022/09/26 06:18:06;;;;;;;7.13;3.58;;;12.00;78.20;;;;;;9168911;19;20052;-64
2022/09/26 06:21:12;;;;;;;5.95;2.85;;;12.00;78.20;;;;;;9174144;19;20035;-63
2022/09/26 06:24:19;;;;;;;7.45;2.92;;;12.00;78.20;;;;;;9172723;19;20022;-63
2022/09/26 06:27:24;;;;;;;6.80;2.95;;;12.00;78.20;;;;;;9168258;19;20033;-63
2022/09/26 06:30:28;;;;;;;10.95;3.92;;;12.00;78.20;;;;;;9174665;19;20037;-63
2022/09/26 06:33:41;;;;;;;5.32;2.80;;;12.00;78.20;;;;;;9170512;19;20018;-62
2022/09/26 06:37:08;;;;;;;9.13;3.08;;;12.00;78.20;;;;;;9176446;19;20013;-63
2022/09/26 06:40:12;;;;;;;;;;;12.00;78.20;;;;;;9180445;19;20038;-61
2022/09/26 06:43:17;;;;;;;4.93;3.03;;;12.00;78.10;;;;;;9174723;19;19926;-62
2022/09/26 06:46:39;;;;;;;10.02;3.00;;;12.00;78.00;;;;;;9179523;19;20056;-62
2022/09/26 06:49:52;;;;;;;7.72;3.30;;;12.00;78.10;;;;;;9172854;19;20018;-61
2022/09/26 06:53:04;;;;;;;6.20;3.22;;;12.00;78.10;;;;;;9176030;19;20011;-62
2022/09/26 06:56:13;;;;;;;9.85;3.60;;;12.00;78.20;;;;;;9175556;19;20029;-63
2022/09/26 06:59:17;;;;;;;4.45;2.97;;;12.00;78.20;;;;;;9171930;19;20790;-62
2022/09/26 07:02:51;;;;;;;4.18;2.83;;;12.00;78.20;;;;;;9173779;19;20022;-64
2022/09/26 07:06:04;;;;;;;12.38;4.97;;;12.00;78.30;;;;;;9171940;19;20515;-62
2022/09/26 07:09:08;;;;;;;5.22;2.78;;;12.00;78.30;;;;;;9174655;19;20455;-63
2022/09/26 07:12:40;;;;;;;7.32;2.70;;;12.00;78.30;;;;;;9173639;19;20018;-62
2022/09/26 07:15:46;;;;;;;8.00;3.20;;;12.00;78.30;;;;;;9179823;19;20464;-63
2022/09/26 07:19:05;;;;;;;8.68;3.45;;;12.00;78.30;;;;;;9179781;19;20871;-63
2022/09/26 07:22:17;;;;;;;12.35;3.42;;;12.00;78.30;;;;;;9174202;19;20026;-63
2022/09/26 07:25:26;;;;;;;9.73;3.10;;;12.00;78.40;;;;;;9178139;19;20030;-64
2022/09/26 07:28:30;;;;;;;;;;;12.00;78.40;;;;;;9180581;19;20014;-62
2022/09/26 07:31:34;;;;;;;6.25;2.70;;;12.00;78.30;;;;;;9175759;19;19926;-62
2022/09/26 07:34:54;;;;;;;7.50;3.25;;;12.00;78.20;;;;;;9178866;19;20025;-63
2022/09/26 07:37:59;;;;;;;6.43;3.17;;;12.10;78.30;;;;;;9179513;19;20007;-62
2022/09/26 07:41:03;;;;;;;4.88;2.78;;;12.10;78.30;;;;;;9175429;19;20014;-65
2022/09/26 07:44:08;;;;;;;6.50;2.90;;;12.10;78.40;;;;;;9173415;19;20475;-63
2022/09/26 07:51:11;;;;;;;5.88;3.00;;;12.10;78.50;;;;;;9171546;19;20029;-63
2022/09/26 07:54:24;;;;;;;5.75;2.92;;;12.20;78.50;;;;;;9177029;19;20030;-63
2022/09/26 07:57:48;;;;;;;7.07;3.10;;;12.20;78.50;;;;;;9168950;19;20037;-61
2022/09/26 08:01:11;;;;;;;7.97;3.22;;;12.30;78.50;;;;;;9169735;19;20364;-62
2022/09/26 08:04:33;;;;;;;5.67;3.00;;;12.30;78.40;;;;;;9179285;19;20351;-64
2022/09/26 08:07:39;;;;;;;7.43;3.17;;;12.40;78.40;;;;;;9171679;19;20037;-62
2022/09/26 08:10:52;;;;;;;6.63;3.40;;;12.50;78.50;;;;;;9167917;19;20019;-64
2022/09/26 08:14:09;;;;;;;8.43;3.03;;;12.50;78.40;;;;;;9178871;19;20083;-63
2022/09/26 08:17:33;;;;;;;8.55;3.35;;;12.50;78.40;;;;;;9175297;19;20025;-62
2022/09/26 08:20:38;;;;;;;11.77;2.90;;;12.50;78.30;;;;;;9182865;19;20018;-63
2022/09/26 08:23:42;;;;;;;11.70;4.18;;;12.60;78.40;;;;;;9168275;19;20015;-62
2022/09/26 08:27:23;;;;;;;6.70;3.33;;;12.60;78.40;;;;;;9176016;19;20014;-62
2022/09/26 08:30:30;;;;;;;10.23;3.20;;;12.60;78.30;;;;;;9177312;19;20467;-64
2022/09/26 08:33:37;;;;;;;5.13;2.63;;;12.70;78.40;;;;;;9178039;19;20356;-62
2022/09/26 08:36:41;;;;;;;6.90;2.88;;;12.70;78.40;;;;;;9185576;19;20025;-63
2022/09/26 08:40:03;;;;;;;11.25;2.83;;;12.70;78.40;;;;;;9183418;19;20419;-64
2022/09/26 08:43:42;;;;;;;6.88;3.28;;;12.70;78.40;;;;;;9181615;19;20321;-62
2022/09/26 08:47:16;;;;;;;3.75;2.40;;;12.70;78.50;;;;;;9184618;19;20019;-62
2022/09/26 08:50:49;;;;;;;8.35;3.28;;;12.70;78.40;;;;;;9176076;19;20011;-63
2022/09/26 08:53:57;;;;;;;13.10;3.28;;;12.80;78.50;;;;;;9183812;19;20424;-63
2022/09/26 08:57:06;;;;;;;10.77;3.72;;;12.70;78.50;;;;;;9173053;19;20010;-63
2022/09/26 09:00:20;;;;;;;14.15;2.78;;;12.80;78.60;;;;;;9180763;19;20493;-64
2022/09/26 09:03:44;;;;;;;7.32;2.92;;;12.80;78.70;;;;;;9180447;19;20086;-62
2022/09/26 09:06:50;;;;;;;5.35;3.03;;;12.80;78.60;;;;;;9182623;19;20011;-62
2022/09/26 09:10:00;;;;;;;6.30;2.67;;;12.80;78.60;;;;;;9181991;19;20014;-63
2022/09/26 09:13:37;;;;;;;31.83;5.80;;;12.80;78.60;;;;;;9180335;19;20470;-64
2022/09/26 09:17:24;;;;;;;4.15;2.50;;;12.80;78.70;;;;;;9175897;19;20107;-65
2022/09/26 09:20:48;;;;;;;5.28;3.15;;;12.80;78.60;;;;;;9178064;19;20538;-65
2022/09/26 09:24:19;;;;;;;6.77;3.23;;;12.80;78.70;;;;;;9178948;19;20016;-63
2022/09/26 09:27:38;;;;;;;5.38;2.60;;;12.80;78.70;;;;;;9179522;19;20022;-62
2022/09/26 09:31:01;;;;;;;12.05;3.55;;;12.90;78.70;;;;;;9175907;19;20489;-63
2022/09/26 09:34:40;;;;;;;9.98;4.63;;;12.80;78.60;;;;;;9179471;19;20025;-63
2022/09/26 09:38:20;;;;;;;4.75;2.60;;;12.90;78.80;;;;;;9176933;19;20502;-64
2022/09/26 09:41:48;;;;;;;5.43;2.65;;;12.90;78.70;;;;;;9176844;19;20006;-63
2022/09/26 09:44:56;;;;;;;6.85;2.80;;;12.90;78.80;;;;;;9179314;19;20674;-64
2022/09/26 09:48:00;;;;;;;11.18;3.03;;;12.90;78.90;;;;;;9183906;19;20073;-64
2022/09/26 09:51:29;;;;;;;5.50;2.53;;;12.90;78.90;;;;;;9179812;19;20027;-64
2022/09/26 09:54:49;;;;;;;5.68;2.85;;;12.90;79.10;;;;;;9177880;19;20014;-63
2022/09/26 09:58:15;;;;;;;6.25;2.60;;;12.90;78.90;;;;;;9172179;19;20022;-63
2022/09/26 10:01:25;;;;;;;8.65;5.15;;;13.00;79.10;;;;;;9177194;19;20046;-62
2022/09/26 10:04:37;;;;;;;5.75;2.78;;;13.00;79.00;;;;;;9181017;19;20018;-64
2022/09/26 10:07:43;;;;;;;7.00;2.92;;;13.00;79.00;;;;;;9179004;19;20089;-65
2022/09/26 10:11:23;;;;;;;6.95;2.63;;;13.00;79.00;;;;;;9178178;19;20035;-63
2022/09/26 10:14:39;;;;;;;7.85;2.80;;;13.00;79.00;;;;;;9183466;19;20014;-63
2022/09/26 10:17:43;;;;;;;13.93;3.13;;;13.00;79.00;;;;;;9179529;19;20019;-63
2022/09/26 10:21:17;;;;;;;10.55;3.55;;;13.00;79.00;;;;;;9179986;19;20357;-63
2022/09/26 10:24:37;;;;;;;7.38;3.67;;;13.00;79.10;;;;;;9179580;19;20022;-63
2022/09/26 10:27:50;;;;;;;11.48;3.17;;;13.00;79.30;;;;;;9175277;19;20022;-64
2022/09/26 10:30:56;;;;;;;9.43;2.88;;;13.00;79.20;;;;;;9180661;19;20532;-63
2022/09/26 10:34:05;;;;;;;8.02;2.60;;;13.00;79.20;;;;;;9178123;19;20019;-64
2022/09/26 10:37:31;;;;;;;8.55;2.47;;;13.00;79.20;;;;;;9179318;19;20018;-63
2022/09/26 10:40:54;;;;;;;5.50;3.22;;;13.00;79.50;;;;;;9176379;19;20482;-66
2022/09/26 10:43:59;;;;;;;7.38;3.00;;;13.00;79.30;;;;;;9173795;19;20011;-65
2022/09/26 10:47:30;;;;;;;8.00;3.00;;;13.00;79.30;;;;;;9178855;19;20019;-64
2022/09/26 10:50:59;;;;;;;12.25;4.30;;;13.00;79.40;;;;;;9175516;19;20567;-64
2022/09/26 10:54:20;;;;;;;9.82;2.75;;;13.00;79.40;;;;;;9175389;19;20019;-63
2022/09/26 10:57:32;;;;;;;9.85;3.45;;;13.00;79.50;;;;;;9170952;19;20018;-67
2022/09/26 11:00:40;;;;;;;8.90;2.95;;;13.00;79.50;;;;;;9175559;19;20025;-64
2022/09/26 11:03:54;;;;;;;7.05;2.65;;;13.10;79.60;;;;;;9177067;19;20028;-62
2022/09/26 11:07:01;;;;;;;8.55;2.75;;;13.10;79.60;;;;;;9176545;19;20461;-66
2022/09/26 11:10:14;;;;;;;12.30;2.88;;;13.10;79.60;;;;;;9171628;19;20019;-63
2022/09/26 11:13:31;;;;;;;8.45;2.97;;;13.10;79.70;;;;;;9171869;19;20018;-63
2022/09/26 11:16:53;;;;;;;10.82;3.58;;;13.10;79.70;;;;;;9175387;19;20010;-63
2022/09/26 11:20:02;;;;;;;3.33;2.33;;;13.10;79.80;;;;;;9170862;19;20018;-63
2022/09/26 11:23:21;;;;;;;15.20;3.55;;;13.10;79.80;;;;;;9177302;19;20019;-63
2022/09/26 11:26:32;;;;;;;8.50;2.70;;;13.10;79.80;;;;;;9178384;19;20018;-63
2022/09/26 11:29:44;;;;;;;6.28;2.58;;;13.10;79.90;;;;;;9173735;19;20007;-64
2022/09/26 11:32:56;;;;;;;6.70;2.67;;;13.20;79.90;;;;;;9168741;19;20074;-66
2022/09/26 11:36:35;;;;;;;6.68;2.08;;;13.20;79.90;;;;;;9178576;19;20754;-64
2022/09/26 11:39:57;;;;;;;6.35;3.05;;;13.10;80.00;;;;;;9169108;19;20014;-63
2022/09/26 11:43:14;;;;;;;5.38;2.38;;;13.10;80.00;;;;;;9175318;19;20023;-64
2022/09/26 11:46:37;;;;;;;8.57;3.63;;;13.20;80.10;;;;;;9171804;19;20328;-63
2022/09/26 11:50:03;;;;;;;6.82;2.50;;;13.20;80.20;;;;;;9168174;19;20018;-62
2022/09/26 11:53:48;;;;;;;6.53;2.97;;;13.20;80.20;;;;;;9167284;19;20640;-66
2022/09/26 11:57:01;;;;;;;6.50;2.70;;;13.20;80.20;;;;;;9160916;19;20424;-65
2022/09/26 12:00:12;;;;;;;3.80;2.55;;;13.20;80.20;;;;;;9169939;19;20007;-63
2022/09/26 12:03:42;;;;;;;8.25;2.83;;;13.20;80.20;;;;;;9170284;19;20364;-64
2022/09/26 12:06:54;;;;;;;9.98;3.35;;;13.20;80.50;;;;;;9169809;19;20018;-63
2022/09/26 12:10:15;;;;;;;8.48;3.10;;;13.20;80.40;;;;;;9160609;19;20789;-64
2022/09/26 12:13:33;;;;;;;7.82;2.80;;;13.20;80.50;;;;;;9170353;19;20022;-63
2022/09/26 12:16:45;;;;;;;10.20;3.15;;;13.20;80.50;;;;;;9168999;19;20044;-64
2022/09/26 12:19:58;;;;;;;3.85;2.65;;;13.20;80.50;;;;;;9168315;19;20013;-65
2022/09/26 12:23:13;;;;;;;6.85;2.72;;;13.20;80.60;;;;;;9171710;19;20388;-64
2022/09/26 12:26:22;;;;;;;8.82;2.35;;;13.20;80.60;;;;;;9169026;19;20373;-63
2022/09/26 12:29:37;;;;;;;2.65;2.13;;;13.20;80.70;;;;;;9165258;19;20018;-65
2022/09/26 12:32:58;;;;;;;9.93;2.45;;;13.20;80.80;;;;;;9170272;19;20513;-67
2022/09/26 12:36:17;;;;;;;5.68;2.58;;;13.20;80.90;;;;;;9167742;19;20538;-64
2022/09/26 12:39:50;;;;;;;7.45;2.60;;;13.20;80.90;;;;;;9163627;19;20018;-62
2022/09/26 12:43:13;;;;;;;4.85;2.50;;;13.20;81.00;;;;;;9162911;19;20035;-63
2022/09/26 12:46:33;;;;;;;4.32;2.22;;;13.20;81.00;;;;;;9168975;19;20791;-64
2022/09/26 12:49:57;;;;;;;4.80;2.72;;;13.20;81.10;;;;;;9170483;19;20463;-63
2022/09/26 12:53:10;;;;;;;;;;;13.20;81.10;;;;;;9162251;19;20086;-65
2022/09/26 12:56:22;;;;;;;4.82;1.90;;;13.20;80.90;;;;;;9164496;19;19993;-65
2022/09/26 12:59:42;;;;;;;5.68;2.38;;;13.20;80.90;;;;;;9164592;19;20018;-64
2022/09/26 13:03:10;;;;;;;2.78;2.25;;;13.30;81.10;;;;;;9164800;19;20078;-64
2022/09/26 13:06:34;;;;;;;2.78;1.90;;;13.20;81.20;;;;;;9171517;19;20081;-64
2022/09/26 13:09:58;;;;;;;4.15;2.08;;;13.20;81.10;;;;;;9169407;19;20019;-65
2022/09/26 13:13:29;;;;;;;5.83;2.43;;;13.20;81.80;;;;;;9174406;19;20085;-64
2022/09/26 13:16:42;;;;;;;14.95;7.13;;;13.30;81.40;;;;;;9168195;19;20508;-64
2022/09/26 13:19:53;;;;;;;4.82;2.28;;;13.30;81.30;;;;;;9171250;19;20015;-64
2022/09/26 13:23:03;;;;;;;3.75;1.75;;;13.30;81.30;;;;;;9174452;19;20486;-63
2022/09/26 13:26:15;;;;;;;3.67;1.85;;;13.30;81.40;;;;;;9178132;19;20047;-63
2022/09/26 13:29:24;;;;;;;3.60;1.58;;;13.30;81.50;;;;;;9171502;19;20011;-66
2022/09/26 13:32:39;;;;;;;4.10;1.38;;;13.30;81.50;;;;;;9169511;19;20003;-65
2022/09/26 13:35:46;;;;;;;2.47;1.45;;;13.30;81.60;;;;;;9172873;19;20019;-64
2022/09/26 13:39:02;;;;;;;2.90;1.60;;;13.30;81.60;;;;;;9172708;19;20055;-65
2022/09/26 13:42:15;;;;;;;4.50;1.45;;;13.30;81.60;;;;;;9171711;19;20460;-66
2022/09/26 13:45:26;;;;;;;3.85;1.70;;;13.30;81.70;;;;;;9174245;19;20106;-64
2022/09/26 13:48:39;;;;;;;6.65;1.13;;;13.30;81.70;;;;;;9171378;19;20759;-64
2022/09/26 13:51:53;;;;;;;2.27;1.60;;;13.30;81.70;;;;;;9171810;19;20024;-63
2022/09/26 13:55:00;;;;;;;3.40;1.40;;;13.30;81.70;;;;;;9173703;19;20018;-64
2022/09/26 13:58:21;;;;;;;2.05;1.25;;;13.30;81.80;;;;;;9168636;19;20026;-65
2022/09/26 14:01:26;;;;;;;3.75;1.27;;;13.30;82.00;;;;;;9175145;19;20471;-64
2022/09/26 14:04:35;;;;;;;2.42;1.35;;;13.30;81.80;;;;;;9174932;19;20014;-64
2022/09/26 14:11:23;;;;;;;3.45;1.90;;;13.30;82.10;;;;;;9171960;19;20401;-67
2022/09/26 14:14:43;;;;;;;1.35;1.05;;;13.40;82.00;;;;;;9169449;19;20030;-64
2022/09/26 14:18:09;;;;;;;1.77;1.20;;;13.30;82.10;;;;;;9169612;19;20380;-64
2022/09/26 14:21:23;;;;;;;2.60;1.23;;;13.40;82.20;;;;;;9168811;19;20010;-64
2022/09/26 14:24:40;;;;;;;1.05;1.00;;;13.40;82.00;;;;;;9168947;19;20014;-64
2022/09/26 14:27:44;;;;;;;2.03;1.00;;;13.30;82.10;;;;;;9175644;19;20131;-63
2022/09/26 14:31:12;;;;;;;1.45;1.08;;;13.40;82.00;;;;;;9167933;19;20023;-64
2022/09/26 14:34:24;;;;;;;3.92;2.15;;;13.40;82.30;;;;;;9166898;19;20470;-64
2022/09/26 14:37:41;;;;;;;1.30;1.20;;;13.40;82.20;;;;;;9173478;19;20074;-64
2022/09/26 14:40:55;;;;;;;1.35;1.15;;;13.40;82.30;;;;;;9167783;19;20018;-63
2022/09/26 14:44:04;;;;;;;1.10;1.00;;;13.40;82.30;;;;;;9173207;19;20467;-63
2022/09/26 14:47:15;;;;;;;1.30;1.00;;;13.40;82.20;;;;;;9168942;19;20078;-64
2022/09/26 14:50:21;;;;;;;2.88;2.00;;;13.40;82.30;;;;;;9169676;19;20018;-64
2022/09/26 14:53:29;;;;;;;1.60;1.25;;;13.40;82.30;;;;;;9172972;19;20459;-64
2022/09/26 14:56:42;;;;;;;2.72;1.77;;;13.40;82.30;;;;;;9166928;19;20515;-64
2022/09/26 14:59:46;;;;;;;1.15;1.10;;;13.40;82.50;;;;;;9179310;19;20684;-69
2022/09/26 15:02:56;;;;;;;2.22;1.42;;;13.40;82.30;;;;;;9180436;19;20035;-69
2022/09/26 15:06:07;;;;;;;1.95;1.20;;;13.40;82.50;;;;;;9182373;19;20053;-69
2022/09/26 15:09:12;;;;;;;2.42;1.15;;;13.40;82.40;;;;;;9176736;19;20023;-69
2022/09/26 15:12:21;;;;;;;2.22;1.65;;;13.40;82.40;;;;;;9177341;19;20433;-69
2022/09/26 15:15:39;;;;;;;1.52;1.20;;;13.40;82.50;;;;;;9181276;19;20025;-69
2022/09/26 15:18:49;;;;;;;1.50;1.20;;;13.40;82.60;;;;;;9180220;19;20112;-68
2022/09/26 15:22:00;;;;;;;2.28;1.38;;;13.40;82.60;;;;;;9180551;19;20086;-68
2022/09/26 15:25:08;;;;;;;2.15;1.63;;;13.30;82.60;;;;;;9175999;19;20078;-66
2022/09/26 15:28:12;;;;;;;2.33;1.23;;;13.30;82.60;;;;;;9172214;19;20048;-68
2022/09/26 15:31:25;;;;;;;2.92;1.23;;;13.40;82.70;;;;;;9163499;19;20803;-65
2022/09/26 15:34:34;;;;;;;1.45;1.00;;;13.40;82.80;;;;;;9170735;19;20019;-69
2022/09/26 15:37:38;;;;;;;2.03;1.17;;;13.40;82.70;;;;;;9169679;19;20347;-67
2022/09/26 15:40:41;;;;;;;1.30;1.20;;;13.40;82.70;;;;;;9169027;19;20110;-68
2022/09/26 15:43:43;;;;;;;3.25;2.55;;;13.40;82.70;;;;;;9169247;19;20026;-68
2022/09/26 15:46:49;;;;;;;1.92;1.30;;;13.40;82.70;;;;;;9173217;19;20074;-68
2022/09/26 15:50:07;;;;;;;1.00;0.90;;;13.40;82.80;;;;;;9174767;19;20041;-68
2022/09/26 15:53:23;;;;;;;0.90;0.90;;;13.40;82.90;;;;;;9167276;19;20094;-68
2022/09/26 15:56:32;;;;;;;4.05;1.25;;;13.40;82.90;;;;;;9162690;19;20353;-68
2022/09/26 15:59:39;;;;;;;1.02;0.93;;;13.40;82.90;;;;;;9168883;19;20019;-69
2022/09/26 16:02:44;;;;;;;1.63;1.00;;;13.40;83.00;;;;;;9168032;19;20003;-69
2022/09/26 16:05:51;;;;;;;3.55;2.00;;;13.40;82.90;;;;;;9170550;19;20018;-67
2022/09/26 16:09:01;;;;;;;1.40;1.30;;;13.40;83.00;;;;;;9176069;19;20022;-68
2022/09/26 16:12:08;;;;;;;4.65;1.30;;;13.40;83.10;;;;;;9174269;19;20089;-68
2022/09/26 16:15:21;;;;;;;4.28;1.42;;;13.40;83.10;;;;;;9177314;19;20010;-69
2022/09/26 16:18:26;;;;;;;2.25;1.30;;;13.40;83.00;;;;;;9170617;19;20491;-67
2022/09/26 16:21:36;;;;;;;1.63;1.48;;;13.40;83.10;;;;;;9171191;19;20078;-68
2022/09/26 16:24:40;;;;;;;1.55;1.13;;;13.40;83.10;;;;;;9172373;19;20482;-68
2022/09/26 16:27:44;;;;;;;2.25;1.52;;;13.40;83.10;;;;;;9167604;19;20032;-68
2022/09/26 16:30:53;;;;;;;;;;;13.40;83.10;;;;;;9167874;19;20495;-67
2022/09/26 16:33:59;;;;;;;1.50;1.17;;;13.40;83.10;;;;;;9168749;19;19925;-67
2022/09/26 16:37:06;;;;;;;1.52;1.42;;;13.40;82.90;;;;;;9169904;19;20022;-69
2022/09/26 16:40:19;;;;;;;1.60;1.50;;;13.50;83.00;;;;;;9175020;19;20024;-70
2022/09/26 16:43:28;;;;;;;5.57;1.98;;;13.50;83.20;;;;;;9179675;19;20740;-66
2022/09/26 16:46:36;;;;;;;2.30;1.45;;;13.40;83.10;;;;;;9179650;19;20811;-68
2022/09/26 16:49:44;;;;;;;4.10;2.25;;;13.40;83.10;;;;;;9178703;19;20019;-67
2022/09/26 16:52:50;;;;;;;6.15;2.15;;;13.40;83.20;;;;;;9178650;19;20025;-67
2022/09/26 16:55:54;;;;;;;2.70;2.08;;;13.40;83.20;;;;;;9180866;19;20078;-68